Time;durP1;ratioP1;P1;durP2;ratioP2;P2;SDS_P1;SDS_P2;PMS_P1;PMS_P2;Temp;Humidity;BMP_temperature;BMP_pressure;BME280_temperature;BME280_humidity;BME280_pressure;Samples;Min_cycle;Max_cycle;Signal;HPM_P1;HPM_P2
2021/06/02 00:01:47;;;;;;;3.30;3.00;;;14.90;95.10;;;;;;5094121;28;20171;-57
2021/06/02 00:04:15;;;;;;;4.30;3.40;;;14.90;95.20;;;;;;5094068;28;20186;-51
2021/06/02 00:06:43;;;;;;;4.53;3.20;;;14.90;95.30;;;;;;5093987;28;20193;-57
2021/06/02 00:09:09;;;;;;;4.43;3.10;;;14.80;95.30;;;;;;5094080;28;20200;-55
2021/06/02 00:11:35;;;;;;;6.20;4.00;;;14.80;95.30;;;;;;5093728;28;20522;-54
2021/06/02 00:14:02;;;;;;;7.93;3.70;;;14.80;95.30;;;;;;5093770;28;20172;-58
2021/06/02 00:16:28;;;;;;;5.70;4.00;;;14.80;95.60;;;;;;5094400;28;20212;-52
2021/06/02 00:18:53;;;;;;;5.57;3.80;;;14.80;95.40;;;;;;5093660;28;20648;-58
2021/06/02 00:21:19;;;;;;;4.30;3.50;;;14.80;95.60;;;;;;5093495;28;20201;-53
2021/06/02 00:23:44;;;;;;;4.70;3.60;;;14.90;95.50;;;;;;5093679;28;20298;-58
2021/06/02 00:26:13;;;;;;;6.73;4.60;;;14.90;95.30;;;;;;5094428;28;20513;-58
2021/06/02 00:28:40;;;;;;;7.87;5.13;;;15.00;95.30;;;;;;5097773;28;20522;-57
2021/06/02 00:31:06;;;;;;;7.80;5.30;;;15.00;95.20;;;;;;5097917;28;20254;-57
2021/06/02 00:33:32;;;;;;;8.03;6.10;;;15.00;95.10;;;;;;5098551;28;20221;-55
2021/06/02 00:36:00;;;;;;;7.57;6.40;;;15.00;95.20;;;;;;5097943;28;20208;-59
2021/06/02 00:38:26;;;;;;;8.33;6.47;;;15.00;95.20;;;;;;5097831;28;20226;-58
2021/06/02 00:40:52;;;;;;;12.80;7.10;;;15.00;95.30;;;;;;5097502;28;20519;-52
2021/06/02 00:43:19;;;;;;;8.37;6.67;;;14.90;95.30;;;;;;5097564;28;20700;-50
2021/06/02 00:45:48;;;;;;;6.63;5.20;;;14.90;95.30;;;;;;5097769;28;20172;-58
2021/06/02 00:48:16;;;;;;;8.37;4.87;;;14.80;95.30;;;;;;5097751;28;20219;-58
2021/06/02 00:50:46;;;;;;;4.50;4.10;;;14.80;95.20;;;;;;5097203;28;20519;-54
2021/06/02 00:53:13;;;;;;;7.23;4.10;;;14.80;95.20;;;;;;5097148;28;20185;-59
2021/06/02 00:55:39;;;;;;;4.03;3.30;;;14.80;95.10;;;;;;5097267;28;20547;-55
2021/06/02 00:58:13;;;;;;;3.60;3.17;;;14.80;95.10;;;;;;5097475;28;20669;-52
2021/06/02 01:00:39;;;;;;;3.70;3.03;;;14.70;95.10;;;;;;5097163;28;20677;-52
2021/06/02 01:03:06;;;;;;;3.67;3.00;;;14.80;95.20;;;;;;5097231;28;20255;-54
2021/06/02 01:05:32;;;;;;;4.70;2.67;;;14.80;95.40;;;;;;5097028;28;20183;-57
2021/06/02 01:08:03;;;;;;;3.33;2.67;;;14.80;95.60;;;;;;5097126;28;20243;-54
2021/06/02 01:10:30;;;;;;;3.53;2.70;;;14.70;95.70;;;;;;5096188;28;20187;-56
2021/06/02 01:12:57;;;;;;;3.00;2.70;;;14.80;95.70;;;;;;5096497;28;20182;-54
2021/06/02 01:15:23;;;;;;;3.13;2.73;;;14.80;95.70;;;;;;5096677;28;20276;-54
2021/06/02 01:17:49;;;;;;;3.20;2.90;;;14.80;95.90;;;;;;5096524;28;20200;-56
2021/06/02 01:20:18;;;;;;;3.63;2.83;;;14.80;96.10;;;;;;5096906;28;20180;-57
2021/06/02 01:22:44;;;;;;;3.87;2.80;;;14.70;96.20;;;;;;5097185;28;20180;-57
2021/06/02 01:25:16;;;;;;;3.70;2.80;;;14.60;96.10;;;;;;5096703;28;20203;-54
2021/06/02 01:27:42;;;;;;;4.50;3.00;;;14.60;96.40;;;;;;5096839;28;20195;-54
2021/06/02 01:30:10;;;;;;;3.60;2.60;;;14.50;96.70;;;;;;5096834;28;20192;-59
2021/06/02 01:32:44;;;;;;;4.00;2.97;;;14.50;97.10;;;;;;5096505;28;20693;-56
2021/06/02 01:35:35;;;;;;;3.20;2.90;;;14.40;97.30;;;;;;5094989;28;20735;-53
2021/06/02 01:38:11;;;;;;;3.43;3.10;;;14.30;97.40;;;;;;5095397;28;20209;-56
2021/06/02 01:41:14;;;;;;;3.77;3.00;;;14.20;97.80;;;;;;5097073;28;20233;-57
2021/06/02 01:43:42;;;;;;;3.30;2.83;;;14.20;98.00;;;;;;5096346;28;20162;-53
2021/06/02 01:46:53;;;;;;;3.53;3.10;;;14.10;98.40;;;;;;5096543;28;20206;-57
2021/06/02 01:49:49;;;;;;;5.77;3.10;;;14.00;98.30;;;;;;5054520;28;20183;-51
2021/06/02 01:52:52;;;;;;;3.70;3.30;;;13.90;98.50;;;;;;5053704;28;20221;-56
2021/06/02 01:55:42;;;;;;;3.70;2.97;;;13.90;98.50;;;;;;5054051;28;20202;-56
2021/06/02 01:58:45;;;;;;;5.07;3.10;;;13.70;98.70;;;;;;5053626;28;20633;-55
2021/06/02 02:01:36;;;;;;;4.33;3.03;;;13.70;98.30;;;;;;5053850;28;20170;-55
2021/06/02 02:04:21;;;;;;;4.13;3.50;;;13.70;98.20;;;;;;4975052;28;20208;-56
2021/06/02 02:07:20;;;;;;;4.33;3.27;;;13.60;98.20;;;;;;4974693;28;20209;-54
2021/06/02 02:10:14;;;;;;;4.27;3.43;;;13.70;97.90;;;;;;4974623;28;20221;-53
2021/06/02 02:12:57;;;;;;;3.90;3.53;;;13.60;97.90;;;;;;4975202;28;20170;-57
2021/06/02 02:15:25;;;;;;;7.10;3.63;;;13.60;97.50;;;;;;4975049;28;20277;-55
2021/06/02 02:18:10;;;;;;;4.40;3.60;;;13.50;97.30;;;;;;4975044;28;20209;-54
2021/06/02 02:21:07;;;;;;;3.80;3.50;;;13.50;97.40;;;;;;4974359;28;20220;-50
2021/06/02 02:23:45;;;;;;;6.03;3.97;;;13.60;96.90;;;;;;5009879;28;20190;-56
2021/06/02 02:26:29;;;;;;;3.83;3.43;;;13.50;97.00;;;;;;5033664;28;20190;-57
2021/06/02 02:29:25;;;;;;;4.90;3.80;;;13.50;96.80;;;;;;5033426;28;20184;-57
2021/06/02 02:32:09;;;;;;;4.97;4.23;;;13.50;96.90;;;;;;5032871;28;20195;-55
2021/06/02 02:35:01;;;;;;;4.37;3.97;;;13.50;96.70;;;;;;5033489;28;20188;-51
2021/06/02 02:37:53;;;;;;;5.50;4.23;;;13.60;97.00;;;;;;5033469;28;20668;-52
2021/06/02 02:40:38;;;;;;;8.17;4.33;;;13.60;97.00;;;;;;5027842;28;20182;-51
2021/06/02 02:43:11;;;;;;;4.27;3.87;;;13.70;96.70;;;;;;5095720;28;20169;-54
2021/06/02 02:45:46;;;;;;;7.23;3.80;;;13.70;96.70;;;;;;5095199;28;20226;-55
2021/06/02 02:48:14;;;;;;;5.27;3.73;;;13.80;96.60;;;;;;5096524;28;20272;-59
2021/06/02 02:51:05;;;;;;;3.93;3.40;;;13.70;96.70;;;;;;5095615;28;20253;-58
2021/06/02 02:53:33;;;;;;;5.67;3.23;;;13.80;96.80;;;;;;5095405;28;20178;-52
2021/06/02 02:56:02;;;;;;;3.63;3.33;;;13.80;96.70;;;;;;5095519;28;20614;-53
2021/06/02 02:58:50;;;;;;;4.60;3.60;;;13.80;96.60;;;;;;5095138;28;20172;-53
2021/06/02 03:01:21;;;;;;;3.90;3.60;;;13.70;96.50;;;;;;5095112;28;20215;-52
2021/06/02 03:03:54;;;;;;;5.70;4.07;;;13.80;96.60;;;;;;5096115;28;20220;-57
2021/06/02 03:06:31;;;;;;;4.60;3.80;;;13.80;96.50;;;;;;5094910;28;20182;-53
2021/06/02 03:09:02;;;;;;;5.80;3.80;;;13.80;96.70;;;;;;5095290;28;20168;-57
2021/06/02 03:11:53;;;;;;;5.37;3.60;;;13.80;96.70;;;;;;5094790;28;20167;-51
2021/06/02 03:14:22;;;;;;;4.20;3.80;;;13.80;97.00;;;;;;5094576;28;20767;-51
2021/06/02 03:17:01;;;;;;;5.23;3.70;;;13.80;97.10;;;;;;5094901;28;20197;-53
2021/06/02 03:19:42;;;;;;;5.07;4.00;;;13.80;97.20;;;;;;5095112;28;20164;-58
2021/06/02 03:22:14;;;;;;;4.37;3.70;;;13.80;97.30;;;;;;5094731;28;20567;-55
2021/06/02 03:24:46;;;;;;;4.80;3.90;;;13.70;97.10;;;;;;5095212;28;20604;-58
2021/06/02 03:27:25;;;;;;;3.90;3.50;;;13.70;97.30;;;;;;5094658;28;20277;-57
2021/06/02 03:30:09;;;;;;;6.07;3.83;;;13.70;97.30;;;;;;5094893;28;20171;-51
2021/06/02 03:33:08;;;;;;;5.57;4.00;;;13.60;97.40;;;;;;5094843;28;20158;-56
2021/06/02 03:36:03;;;;;;;5.10;3.50;;;13.60;97.50;;;;;;5094435;28;20189;-54
2021/06/02 03:38:51;;;;;;;5.83;3.50;;;13.60;97.90;;;;;;5094778;28;20235;-59
2021/06/02 03:41:34;;;;;;;3.87;3.30;;;13.60;97.80;;;;;;5094135;28;20525;-54
2021/06/02 03:44:16;;;;;;;3.93;3.30;;;13.60;97.70;;;;;;5095218;28;20166;-54
2021/06/02 03:47:28;;;;;;;3.10;2.80;;;13.50;97.50;;;;;;5094587;28;20276;-53
2021/06/02 03:50:10;;;;;;;3.60;3.03;;;13.60;97.80;;;;;;5094224;28;20184;-54
2021/06/02 03:52:48;;;;;;;6.50;2.60;;;13.60;98.20;;;;;;5094028;28;20174;-52
2021/06/02 03:55:34;;;;;;;3.77;2.93;;;13.60;98.30;;;;;;5094591;28;20192;-58
2021/06/02 03:58:18;;;;;;;4.47;2.90;;;13.60;98.60;;;;;;5094362;28;20684;-52
2021/06/02 04:00:50;;;;;;;3.73;3.03;;;13.60;98.30;;;;;;5095568;28;20158;-55
2021/06/02 04:03:21;;;;;;;3.77;2.70;;;13.60;98.30;;;;;;5100832;28;20170;-55
2021/06/02 04:05:58;;;;;;;3.30;2.47;;;13.60;98.30;;;;;;5100770;28;20154;-54
2021/06/02 04:08:50;;;;;;;3.60;2.57;;;13.60;98.50;;;;;;5101882;28;20628;-56
2021/06/02 04:11:26;;;;;;;4.20;3.00;;;13.60;98.30;;;;;;5100355;28;20258;-58
2021/06/02 04:13:55;;;;;;;4.87;3.00;;;13.70;98.40;;;;;;5101010;28;20168;-54
2021/06/02 04:16:41;;;;;;;6.03;3.00;;;13.80;98.40;;;;;;5101547;28;20236;-53
2021/06/02 04:19:09;;;;;;;3.53;2.60;;;13.80;98.70;;;;;;5100777;28;20185;-52
2021/06/02 04:21:36;;;;;;;3.53;2.80;;;13.80;98.40;;;;;;5100790;28;20180;-52
2021/06/02 04:24:04;;;;;;;2.90;2.60;;;13.90;98.50;;;;;;5100788;28;20181;-58
2021/06/02 04:26:32;;;;;;;3.97;2.80;;;13.90;98.50;;;;;;5100794;28;20205;-53
2021/06/02 04:29:11;;;;;;;4.40;3.20;;;14.00;98.50;;;;;;5100815;28;20178;-58
2021/06/02 04:31:38;;;;;;;3.60;3.00;;;14.00;98.50;;;;;;5100933;28;20198;-53
2021/06/02 04:34:05;;;;;;;2.97;2.57;;;14.10;98.60;;;;;;5100703;28;20522;-54
2021/06/02 04:36:31;;;;;;;3.00;2.70;;;14.20;98.50;;;;;;5100596;28;20214;-54
2021/06/02 04:38:59;;;;;;;3.60;2.50;;;14.30;98.40;;;;;;5100891;28;20239;-53
2021/06/02 04:41:28;;;;;;;3.07;2.40;;;14.40;98.40;;;;;;5100396;28;20536;-51
2021/06/02 04:43:59;;;;;;;2.50;2.30;;;14.50;98.40;;;;;;5101344;28;20174;-59
2021/06/02 04:46:24;;;;;;;3.07;2.73;;;14.60;98.20;;;;;;5100258;28;20206;-58
2021/06/02 04:48:52;;;;;;;2.97;2.57;;;14.60;98.30;;;;;;5100596;28;20641;-52
2021/06/02 04:51:39;;;;;;;4.03;2.77;;;14.70;98.50;;;;;;5099789;28;20176;-54
2021/06/02 04:54:42;;;;;;;3.57;2.60;;;14.80;98.30;;;;;;5101113;28;20173;-53
2021/06/02 04:57:32;;;;;;;2.47;2.20;;;14.90;98.10;;;;;;5100434;28;20551;-52
2021/06/02 05:00:10;;;;;;;4.17;2.73;;;15.00;98.10;;;;;;5099944;28;20532;-52
2021/06/02 05:02:58;;;;;;;3.33;2.90;;;15.20;98.00;;;;;;5098397;28;20183;-59
2021/06/02 05:05:51;;;;;;;3.83;2.47;;;15.30;98.20;;;;;;5068410;28;20201;-56
2021/06/02 05:08:29;;;;;;;2.83;2.50;;;15.40;97.80;;;;;;5085780;28;20196;-57
2021/06/02 05:11:26;;;;;;;4.33;2.57;;;15.50;97.80;;;;;;5100229;28;20219;-51
2021/06/02 05:14:23;;;;;;;2.70;2.47;;;15.70;97.70;;;;;;5094055;28;20209;-56
2021/06/02 05:17:05;;;;;;;4.00;2.50;;;15.70;97.60;;;;;;5096374;28;20224;-56
2021/06/02 05:23:42;;;;;;;4.37;2.73;;;15.90;98.10;;;;;;5076864;28;20254;-51
2021/06/02 05:26:26;;;;;;;3.00;2.20;;;16.10;98.00;;;;;;5091558;28;20256;-53
2021/06/02 05:29:30;;;;;;;2.90;2.60;;;16.20;97.90;;;;;;5096700;28;20614;-50
2021/06/02 05:32:06;;;;;;;5.47;2.50;;;16.30;98.60;;;;;;5066447;28;20194;-58
2021/06/02 05:34:58;;;;;;;3.73;2.47;;;16.40;98.30;;;;;;5077194;28;20245;-59
2021/06/02 05:38:18;;;;;;;6.23;2.70;;;16.50;98.60;;;;;;5094167;28;20676;-59
2021/06/02 05:41:10;;;;;;;2.40;2.20;;;16.60;98.90;;;;;;5089449;28;20185;-55
2021/06/02 05:44:01;;;;;;;3.53;2.50;;;16.70;98.70;;;;;;5082178;28;20174;-51
2021/06/02 05:47:16;;;;;;;3.03;2.20;;;16.80;98.60;;;;;;5095985;28;20206;-56
2021/06/02 05:49:56;;;;;;;3.57;2.33;;;16.90;98.20;;;;;;5096038;28;20205;-55
2021/06/02 05:52:54;;;;;;;5.73;2.33;;;16.90;98.10;;;;;;5091902;28;20184;-58
2021/06/02 05:55:34;;;;;;;2.67;2.47;;;17.10;98.20;;;;;;5095622;28;20202;-55
2021/06/02 05:58:35;;;;;;;3.20;2.33;;;17.20;97.80;;;;;;5095915;28;20263;-54
2021/06/02 06:01:19;;;;;;;5.93;3.03;;;17.30;97.30;;;;;;5095598;28;20184;-51
2021/06/02 06:03:53;;;;;;;3.87;2.63;;;17.20;95.90;;;;;;5092522;28;20208;-51
2021/06/02 06:06:27;;;;;;;3.03;2.70;;;17.20;96.30;;;;;;5095314;28;20205;-55
2021/06/02 06:09:17;;;;;;;5.67;2.70;;;17.20;96.00;;;;;;5094507;28;20223;-53
2021/06/02 06:12:05;;;;;;;2.50;2.30;;;17.30;96.80;;;;;;5093743;28;20645;-59
2021/06/02 06:15:08;;;;;;;2.97;2.47;;;17.50;96.80;;;;;;5094989;28;20604;-55
2021/06/02 06:17:45;;;;;;;2.43;2.20;;;17.50;95.10;;;;;;5095684;28;20277;-57
2021/06/02 06:20:45;;;;;;;3.03;2.53;;;17.30;94.70;;;;;;5094618;28;20166;-53
2021/06/02 06:23:36;;;;;;;2.50;2.30;;;17.30;95.50;;;;;;5095512;28;20219;-52
2021/06/02 06:26:36;;;;;;;2.90;2.30;;;17.30;96.00;;;;;;5094349;28;20423;-55
2021/06/02 06:29:25;;;;;;;3.00;2.30;;;17.30;94.40;;;;;;5074514;28;20558;-51
2021/06/02 06:31:52;;;;;;;3.13;2.13;;;17.30;94.00;;;;;;5085341;28;20176;-51
2021/06/02 06:34:23;;;;;;;2.47;1.80;;;17.50;94.10;;;;;;5094317;28;20185;-51
2021/06/02 06:36:53;;;;;;;2.83;2.10;;;17.60;93.40;;;;;;5094208;28;20263;-56
2021/06/02 06:39:27;;;;;;;2.97;2.00;;;17.60;93.30;;;;;;5094358;28;20185;-54
2021/06/02 06:41:55;;;;;;;3.23;2.70;;;17.60;92.80;;;;;;5094545;28;20178;-57
2021/06/02 06:44:21;;;;;;;3.00;2.30;;;17.60;94.10;;;;;;5093365;28;20256;-59
2021/06/02 06:46:51;;;;;;;2.20;2.00;;;17.80;94.20;;;;;;5094524;28;20228;-57
2021/06/02 06:49:18;;;;;;;2.50;2.30;;;17.90;93.50;;;;;;5095149;28;20292;-56
2021/06/02 06:51:52;;;;;;;2.47;2.17;;;18.00;94.30;;;;;;5093507;28;20216;-57
2021/06/02 06:54:19;;;;;;;2.60;2.40;;;18.20;93.50;;;;;;5095286;28;20161;-51
2021/06/02 06:56:47;;;;;;;3.10;2.10;;;18.30;94.50;;;;;;5095224;28;20209;-59
2021/06/02 06:59:17;;;;;;;2.67;2.10;;;18.30;93.40;;;;;;5093669;28;20649;-57
2021/06/02 07:01:43;;;;;;;2.33;2.10;;;18.40;93.30;;;;;;5094668;28;20173;-60
2021/06/02 07:04:10;;;;;;;2.07;1.93;;;18.40;93.30;;;;;;5094780;28;20169;-51
2021/06/02 07:06:39;;;;;;;2.50;2.00;;;18.50;94.10;;;;;;5094457;28;20662;-51
2021/06/02 07:09:08;;;;;;;2.90;2.40;;;18.60;93.20;;;;;;5095325;28;20179;-52
2021/06/02 07:11:40;;;;;;;3.40;2.00;;;18.60;92.00;;;;;;5094811;28;20220;-54
2021/06/02 07:14:09;;;;;;;3.10;2.30;;;18.60;91.70;;;;;;5094926;28;20281;-54
2021/06/02 07:16:36;;;;;;;2.70;2.07;;;18.60;91.10;;;;;;5094286;28;20206;-54
2021/06/02 07:19:03;;;;;;;1.97;1.83;;;18.60;91.40;;;;;;5094222;28;20526;-57
2021/06/02 07:21:29;;;;;;;2.27;2.07;;;18.60;91.30;;;;;;5092746;28;20227;-56
2021/06/02 07:23:55;;;;;;;3.27;2.10;;;18.70;91.20;;;;;;5093574;28;20169;-52
2021/06/02 07:26:21;;;;;;;2.17;1.97;;;18.80;90.10;;;;;;5094497;28;20201;-52
2021/06/02 07:28:48;;;;;;;2.67;1.73;;;18.90;90.20;;;;;;5093512;28;20248;-52
2021/06/02 07:31:13;;;;;;;2.43;1.70;;;19.00;90.50;;;;;;5094263;28;20536;-57
2021/06/02 07:33:39;;;;;;;2.10;1.90;;;19.10;89.90;;;;;;5094792;28;20629;-55
2021/06/02 07:36:08;;;;;;;2.00;1.83;;;19.20;90.00;;;;;;5093420;28;20234;-55
2021/06/02 07:38:34;;;;;;;2.13;1.60;;;19.30;88.80;;;;;;5094075;28;20561;-54
2021/06/02 07:41:00;;;;;;;3.40;1.90;;;19.40;88.40;;;;;;5094246;28;20625;-53
2021/06/02 07:43:26;;;;;;;2.07;1.87;;;19.40;89.30;;;;;;5094234;28;20181;-54
2021/06/02 07:45:52;;;;;;;1.70;1.60;;;19.50;88.50;;;;;;5094256;28;20182;-54
2021/06/02 07:48:17;;;;;;;2.07;1.60;;;19.70;90.00;;;;;;5094813;28;20296;-54
2021/06/02 07:50:43;;;;;;;1.80;1.70;;;19.70;88.50;;;;;;5094456;28;20217;-60
2021/06/02 07:53:09;;;;;;;3.43;2.10;;;19.80;85.40;;;;;;5092860;28;20192;-54
2021/06/02 07:55:34;;;;;;;1.73;1.63;;;19.90;86.00;;;;;;5093952;28;20580;-54
2021/06/02 07:58:00;;;;;;;2.00;1.70;;;19.90;84.50;;;;;;5094579;28;20197;-55
2021/06/02 08:00:26;;;;;;;1.80;1.70;;;19.90;86.30;;;;;;5094267;28;20220;-52
2021/06/02 08:02:52;;;;;;;1.37;1.27;;;19.90;87.40;;;;;;5093852;28;20570;-59
2021/06/02 08:05:18;;;;;;;1.93;1.70;;;20.10;86.20;;;;;;5094293;28;20645;-55
2021/06/02 08:07:45;;;;;;;1.80;1.70;;;20.20;86.60;;;;;;5093813;28;20197;-57
2021/06/02 08:10:12;;;;;;;2.67;2.00;;;20.40;88.60;;;;;;5094450;28;20185;-58
2021/06/02 08:12:38;;;;;;;2.87;1.77;;;20.60;87.30;;;;;;5093651;28;20216;-54
2021/06/02 08:15:06;;;;;;;3.73;1.60;;;20.60;84.30;;;;;;5093724;28;20247;-57
2021/06/02 08:17:31;;;;;;;1.80;1.70;;;20.80;84.30;;;;;;5094058;28;20653;-51
2021/06/02 08:19:57;;;;;;;1.70;1.60;;;20.70;85.30;;;;;;5094111;28;20195;-58
2021/06/02 08:22:22;;;;;;;1.70;1.60;;;20.70;84.10;;;;;;5093437;28;20683;-56
2021/06/02 08:24:48;;;;;;;1.80;1.70;;;20.80;84.20;;;;;;5094318;28;20633;-56
2021/06/02 08:27:14;;;;;;;1.73;1.63;;;20.80;85.00;;;;;;5094454;28;20186;-57
2021/06/02 08:29:40;;;;;;;2.27;1.43;;;20.90;85.30;;;;;;5093676;28;20209;-55
2021/06/02 08:32:07;;;;;;;1.83;1.60;;;21.00;83.80;;;;;;5093975;28;20179;-55
2021/06/02 08:34:32;;;;;;;2.20;1.80;;;21.00;82.20;;;;;;5093880;28;20189;-52
2021/06/02 08:36:58;;;;;;;3.73;2.07;;;21.10;84.60;;;;;;5093426;28;20573;-60
2021/06/02 08:39:24;;;;;;;2.87;1.77;;;21.20;83.80;;;;;;5094162;28;20198;-60
2021/06/02 08:41:51;;;;;;;3.03;1.65;;;21.40;85.20;;;;;;5093407;28;20583;-52
2021/06/02 08:44:19;;;;;;;1.80;1.55;;;21.50;81.70;;;;;;5093850;28;20244;-58
2021/06/02 08:46:47;;;;;;;3.03;1.65;;;21.60;82.00;;;;;;5093697;28;20191;-58
2021/06/02 08:49:18;;;;;;;1.95;1.75;;;21.80;81.40;;;;;;5097136;28;20202;-56
2021/06/02 08:51:45;;;;;;;1.60;1.50;;;21.90;81.80;;;;;;5097505;28;20183;-59
2021/06/02 08:54:10;;;;;;;3.00;1.50;;;21.90;80.00;;;;;;5097950;28;20684;-54
2021/06/02 08:56:41;;;;;;;1.70;1.60;;;22.00;81.50;;;;;;5097289;28;20289;-60
2021/06/02 08:59:07;;;;;;;2.47;1.67;;;22.10;81.30;;;;;;5097148;28;20496;-54
2021/06/02 09:01:34;;;;;;;1.50;1.40;;;22.20;78.40;;;;;;5097175;28;20660;-56
2021/06/02 09:04:04;;;;;;;1.77;1.52;;;22.40;78.00;;;;;;5097620;28;20181;-55
2021/06/02 09:06:31;;;;;;;2.05;1.63;;;22.50;77.10;;;;;;5097415;28;20202;-57
2021/06/02 09:08:57;;;;;;;2.35;1.50;;;22.70;79.30;;;;;;5097064;28;20649;-58
2021/06/02 09:11:23;;;;;;;2.22;1.67;;;22.90;78.90;;;;;;5096974;28;20178;-55
2021/06/02 09:13:49;;;;;;;2.38;1.67;;;23.00;76.50;;;;;;5097020;28;20181;-56
2021/06/02 09:16:30;;;;;;;3.42;1.73;;;23.10;77.70;;;;;;5096664;28;20213;-60
2021/06/02 09:19:04;;;;;;;2.38;1.58;;;23.10;74.90;;;;;;5097679;28;20161;-53
2021/06/02 09:21:31;;;;;;;6.13;1.98;;;23.10;78.60;;;;;;5097007;28;20506;-53
2021/06/02 09:23:58;;;;;;;2.33;1.65;;;23.00;79.40;;;;;;5096945;28;20236;-53
2021/06/02 09:26:30;;;;;;;1.50;1.40;;;23.10;77.10;;;;;;5096543;28;20193;-54
2021/06/02 09:29:13;;;;;;;1.67;1.58;;;23.30;77.80;;;;;;5096625;28;20174;-58
2021/06/02 09:31:44;;;;;;;1.88;1.27;;;23.50;77.30;;;;;;5096872;28;20186;-56
2021/06/02 09:34:22;;;;;;;1.58;1.42;;;23.50;75.10;;;;;;5096540;28;20564;-58
2021/06/02 09:37:05;;;;;;;1.50;1.40;;;23.50;75.00;;;;;;5096630;28;20212;-53
2021/06/02 09:39:41;;;;;;;2.53;1.42;;;23.40;71.90;;;;;;5096859;28;20232;-52
2021/06/02 09:42:28;;;;;;;1.95;1.40;;;23.40;72.10;;;;;;5096819;28;20158;-53
2021/06/02 09:45:02;;;;;;;1.90;1.33;;;23.50;70.80;;;;;;5096489;28;20244;-55
2021/06/02 09:47:49;;;;;;;2.28;1.48;;;23.50;72.00;;;;;;5096233;28;20198;-57
2021/06/02 09:50:21;;;;;;;1.33;1.23;;;23.50;70.10;;;;;;5096554;28;20154;-60
2021/06/02 09:52:50;;;;;;;1.23;1.17;;;23.60;70.30;;;;;;5096007;28;20174;-53
2021/06/02 09:55:40;;;;;;;2.20;1.20;;;23.70;71.70;;;;;;5096005;28;20661;-56
2021/06/02 09:58:05;;;;;;;1.27;1.13;;;23.80;75.70;;;;;;5096606;28;20255;-55
2021/06/02 10:00:39;;;;;;;1.90;1.42;;;24.00;71.80;;;;;;5096155;28;20170;-53
2021/06/02 10:03:11;;;;;;;1.63;1.30;;;24.20;72.20;;;;;;5096674;28;20220;-54
2021/06/02 10:05:41;;;;;;;1.10;1.10;;;24.30;69.90;;;;;;5096847;28;20177;-55
2021/06/02 10:08:08;;;;;;;2.10;1.60;;;24.30;71.60;;;;;;5095967;28;20533;-59
2021/06/02 10:10:34;;;;;;;1.50;1.40;;;24.50;68.90;;;;;;5096028;28;20257;-54
2021/06/02 10:12:59;;;;;;;2.33;1.40;;;24.60;71.70;;;;;;5096218;28;20618;-53
2021/06/02 10:15:31;;;;;;;2.35;1.42;;;24.70;68.00;;;;;;5096281;28;20205;-53
2021/06/02 10:17:57;;;;;;;1.40;1.30;;;24.80;69.40;;;;;;5095914;28;20202;-58
2021/06/02 10:20:23;;;;;;;1.50;1.40;;;24.90;70.60;;;;;;5095890;28;20178;-55
2021/06/02 10:22:56;;;;;;;1.48;1.38;;;25.00;69.60;;;;;;5095386;28;20227;-53
2021/06/02 10:25:24;;;;;;;1.73;1.30;;;25.20;70.60;;;;;;5095730;28;20280;-57
2021/06/02 10:27:54;;;;;;;1.20;1.13;;;25.20;67.70;;;;;;5095238;28;20198;-52
2021/06/02 10:30:23;;;;;;;2.05;1.50;;;25.10;68.30;;;;;;5096328;28;20178;-56
2021/06/02 10:32:50;;;;;;;2.55;1.50;;;25.10;70.10;;;;;;5095478;28;20311;-52
2021/06/02 10:35:16;;;;;;;1.42;1.33;;;25.30;70.50;;;;;;5095779;28;20705;-56
2021/06/02 10:37:43;;;;;;;1.83;1.40;;;25.60;71.40;;;;;;5095452;28;20217;-56
2021/06/02 10:40:29;;;;;;;1.95;1.30;;;25.80;68.00;;;;;;5095266;28;20170;-58
2021/06/02 10:43:18;;;;;;;1.48;1.10;;;25.60;68.00;;;;;;5094960;28;20633;-54
2021/06/02 10:45:59;;;;;;;1.38;1.10;;;25.50;66.70;;;;;;5095679;28;20173;-54
2021/06/02 10:48:44;;;;;;;1.75;1.23;;;25.50;67.00;;;;;;5095218;28;20154;-53
2021/06/02 10:51:23;;;;;;;1.85;1.17;;;25.50;64.10;;;;;;5095450;28;20169;-54
2021/06/02 10:54:05;;;;;;;2.85;1.60;;;25.50;68.20;;;;;;5095073;28;20203;-57
2021/06/02 10:56:31;;;;;;;2.63;1.33;;;25.50;64.90;;;;;;5095163;28;20685;-57
2021/06/02 10:58:57;;;;;;;1.50;1.40;;;25.60;69.90;;;;;;5095666;28;20177;-57
2021/06/02 11:01:22;;;;;;;2.65;1.60;;;25.70;69.40;;;;;;5094979;28;20170;-58
2021/06/02 11:04:06;;;;;;;1.38;1.27;;;25.70;67.30;;;;;;5095124;28;20258;-51
2021/06/02 11:06:41;;;;;;;1.73;1.60;;;26.00;69.60;;;;;;5094561;28;20186;-55
2021/06/02 11:09:08;;;;;;;2.80;1.55;;;26.20;71.00;;;;;;5094986;28;20172;-58
2021/06/02 11:11:38;;;;;;;2.65;1.75;;;26.40;69.50;;;;;;5094066;28;20178;-53
2021/06/02 11:14:16;;;;;;;1.70;1.60;;;26.30;69.40;;;;;;5094926;28;20193;-57
2021/06/02 11:16:43;;;;;;;1.55;1.30;;;26.40;67.80;;;;;;5094728;28;20278;-59
2021/06/02 11:19:20;;;;;;;1.50;1.40;;;26.40;69.30;;;;;;5094974;28;20166;-55
2021/06/02 11:22:07;;;;;;;1.60;1.42;;;26.40;68.20;;;;;;5094222;28;20165;-57
2021/06/02 11:24:40;;;;;;;4.00;2.13;;;26.60;69.30;;;;;;5094303;28;20173;-51
2021/06/02 11:27:11;;;;;;;1.55;1.38;;;26.70;69.70;;;;;;5094557;28;20224;-57
2021/06/02 11:29:57;;;;;;;1.63;1.52;;;27.00;69.40;;;;;;5095010;28;20277;-58
2021/06/02 11:32:28;;;;;;;2.80;1.40;;;27.10;66.90;;;;;;5086742;28;20189;-55
2021/06/02 11:34:58;;;;;;;1.75;1.30;;;26.70;66.20;;;;;;5094149;28;20588;-52
2021/06/02 11:37:29;;;;;;;1.33;1.23;;;26.50;65.80;;;;;;5094147;28;20668;-56
2021/06/02 11:39:56;;;;;;;1.33;1.20;;;26.50;65.50;;;;;;5094609;28;20170;-54
2021/06/02 11:42:35;;;;;;;2.13;1.75;;;26.60;65.50;;;;;;5094023;28;20193;-57
2021/06/02 11:45:15;;;;;;;2.45;1.40;;;26.60;66.70;;;;;;5094053;28;20173;-56
2021/06/02 11:47:48;;;;;;;1.52;1.40;;;26.60;65.40;;;;;;5094260;28;20192;-59
2021/06/02 11:50:22;;;;;;;1.70;1.60;;;26.70;66.70;;;;;;5092795;28;20182;-53
2021/06/02 11:52:55;;;;;;;3.22;1.30;;;26.90;66.40;;;;;;5094051;28;20261;-54
2021/06/02 11:55:20;;;;;;;1.50;1.23;;;27.10;65.00;;;;;;5093720;28;20673;-57
2021/06/02 11:57:49;;;;;;;2.15;1.30;;;27.30;67.30;;;;;;5094559;28;20200;-56
2021/06/02 12:00:29;;;;;;;1.63;1.40;;;27.10;65.00;;;;;;5094357;28;20177;-54
2021/06/02 12:02:57;;;;;;;2.25;1.27;;;27.20;68.80;;;;;;5094510;28;20170;-53
2021/06/02 12:05:25;;;;;;;4.30;1.67;;;27.30;66.90;;;;;;5094328;28;20173;-56
2021/06/02 12:07:56;;;;;;;3.50;1.63;;;27.20;67.70;;;;;;5094691;28;20201;-54
2021/06/02 12:10:24;;;;;;;1.75;1.30;;;27.10;66.60;;;;;;5094001;28;20185;-56
2021/06/02 12:12:50;;;;;;;2.72;1.50;;;26.80;65.60;;;;;;5093985;28;20201;-53
2021/06/02 12:15:17;;;;;;;1.45;1.33;;;26.80;66.00;;;;;;5093646;28;20232;-57
2021/06/02 12:17:45;;;;;;;2.90;1.48;;;26.70;67.10;;;;;;5094257;28;20252;-57
2021/06/02 12:20:20;;;;;;;1.25;1.13;;;26.90;68.70;;;;;;5094344;28;20171;-59
2021/06/02 12:22:47;;;;;;;2.50;1.40;;;27.10;69.00;;;;;;5096067;28;20177;-59
2021/06/02 12:25:16;;;;;;;1.40;1.30;;;27.30;73.70;;;;;;5097730;28;20165;-58
2021/06/02 12:27:48;;;;;;;1.33;1.23;;;27.50;69.40;;;;;;5098344;28;20197;-54
2021/06/02 12:30:30;;;;;;;2.13;1.35;;;27.90;68.10;;;;;;5098542;28;20739;-55
2021/06/02 12:33:09;;;;;;;1.98;1.58;;;28.00;63.60;;;;;;5097662;28;20204;-57
2021/06/02 12:35:36;;;;;;;3.22;1.50;;;27.80;62.70;;;;;;5097968;28;20205;-51
2021/06/02 12:38:22;;;;;;;2.28;1.40;;;27.40;62.00;;;;;;5097628;28;20214;-51
2021/06/02 12:40:49;;;;;;;1.40;1.30;;;27.20;67.20;;;;;;5097889;28;20160;-58
2021/06/02 12:43:19;;;;;;;1.33;1.23;;;27.10;65.80;;;;;;5097504;28;20166;-55
2021/06/02 12:45:47;;;;;;;2.15;1.20;;;27.00;63.90;;;;;;5097765;28;20636;-51
2021/06/02 12:48:17;;;;;;;1.40;1.30;;;26.90;64.80;;;;;;5097539;28;20189;-55
2021/06/02 12:50:48;;;;;;;3.22;1.40;;;27.00;63.70;;;;;;5097642;28;20181;-54
2021/06/02 12:53:16;;;;;;;1.17;1.08;;;26.90;66.10;;;;;;5098122;28;20506;-56
2021/06/02 12:55:49;;;;;;;1.60;1.50;;;27.00;62.80;;;;;;5097760;28;20284;-56
2021/06/02 12:58:20;;;;;;;2.58;1.42;;;26.70;63.70;;;;;;5097183;28;20251;-53
2021/06/02 13:00:48;;;;;;;1.40;1.30;;;26.60;65.10;;;;;;5097568;28;20170;-52
2021/06/02 13:03:14;;;;;;;2.25;1.40;;;26.70;62.70;;;;;;5097459;28;20203;-55
2021/06/02 13:05:50;;;;;;;1.40;1.30;;;26.80;62.40;;;;;;5097170;28;20170;-56
2021/06/02 13:08:17;;;;;;;1.23;1.13;;;27.10;63.80;;;;;;5097134;28;20198;-55
2021/06/02 13:10:44;;;;;;;1.33;1.17;;;27.10;64.30;;;;;;5096907;28;20549;-57
2021/06/02 13:13:12;;;;;;;1.20;1.10;;;27.10;61.70;;;;;;5097045;28;20273;-57
2021/06/02 13:15:55;;;;;;;1.20;1.10;;;27.10;61.20;;;;;;5096376;28;20689;-54
2021/06/02 13:18:29;;;;;;;0.90;0.90;;;27.30;60.30;;;;;;5097081;28;20254;-53
2021/06/02 13:20:56;;;;;;;1.02;1.00;;;27.40;59.20;;;;;;5095868;28;20186;-56
2021/06/02 13:23:23;;;;;;;1.30;1.20;;;27.20;59.30;;;;;;5096834;28;20181;-55
2021/06/02 13:26:02;;;;;;;1.42;1.20;;;27.00;60.40;;;;;;5097155;28;20178;-57
2021/06/02 13:28:30;;;;;;;1.58;1.30;;;27.10;63.20;;;;;;5097099;28;20487;-55
2021/06/02 13:31:05;;;;;;;3.10;1.20;;;27.20;60.90;;;;;;5096664;28;20193;-51